Time;durP1;ratioP1;P1;durP2;ratioP2;P2;SDS_P1;SDS_P2;PMS_P1;PMS_P2;Temp;Humidity;BMP_temperature;BMP_pressure;BME280_temperature;BME280_humidity;BME280_pressure;Samples;Min_cycle;Max_cycle;Signal;HPM_P1;HPM_P2
2021/05/06 00:02:07;;;;;;;3.45;1.33;;;;;;;;;;1489397;39;20069;-57
2021/05/06 00:14:32;;;;;;;5.13;1.83;;;;;;;;;;1492013;39;20283;-58
2021/05/06 00:30:34;;;;;;;5.05;1.50;;;;;;;;;;1493121;39;20123;-58
2021/05/06 00:31:57;;;;;;;4.10;1.70;;;;;;;;;;1493161;39;20036;-58
2021/05/06 00:33:01;;;;;;;4.43;1.60;;;;;;;;;;1493077;39;20414;-57
2021/05/06 00:34:02;;;;;;;4.07;1.88;;;;;;;;;;1493187;39;20036;-58
2021/05/06 00:35:04;;;;;;;3.40;1.25;;;;;;;;;;1493004;39;20377;-58
2021/05/06 00:36:05;;;;;;;3.35;1.60;;;;;;;;;;1493138;39;20039;-58
2021/05/06 00:37:07;;;;;;;3.90;1.98;;;;;;;;;;1493005;39;20032;-58
2021/05/06 00:38:11;;;;;;;5.53;2.00;;;;;;;;;;1493138;39;20028;-58
2021/05/06 00:39:15;;;;;;;6.32;1.50;;;;;;;;;;1492982;39;20068;-57
2021/05/06 00:40:18;;;;;;;2.50;1.20;;;;;;;;;;1493028;39;20489;-57
2021/05/06 00:41:37;;;;;;;3.05;1.40;;;;;;;;;;1493028;39;20480;-58
2021/05/06 00:42:44;;;;;;;3.63;1.42;;;;;;;;;;1493007;39;20032;-57
2021/05/06 00:53:58;;;;;;;3.63;1.73;;;;;;;;;;1493206;39;20032;-57
2021/05/06 00:55:03;;;;;;;3.47;1.55;;;;;;;;;;1493005;39;20402;-58
2021/05/06 00:57:31;;;;;;;4.50;1.40;;;;;;;;;;1493174;39;20027;-58
2021/05/06 01:00:23;;;;;;;3.97;1.48;;;;;;;;;;1493241;39;20032;-58
2021/05/06 01:01:42;;;;;;;3.05;1.42;;;;;;;;;;1493260;39;20063;-58
2021/05/06 01:02:56;;;;;;;5.50;1.90;;;;;;;;;;1492948;39;20388;-58
2021/05/06 01:04:11;;;;;;;3.95;2.03;;;;;;;;;;1493122;39;20024;-58
2021/05/06 01:05:17;;;;;;;3.80;1.70;;;;;;;;;;1492964;39;20403;-58
2021/05/06 01:06:21;;;;;;;3.60;1.50;;;;;;;;;;1492999;39;20028;-58
2021/05/06 01:08:44;;;;;;;3.85;1.55;;;;;;;;;;1492834;39;20080;-57
2021/05/06 01:09:53;;;;;;;4.47;1.80;;;;;;;;;;1492887;39;20035;-58
2021/05/06 01:11:08;;;;;;;4.15;1.48;;;;;;;;;;1492982;39;20418;-58
2021/05/06 01:12:09;;;;;;;3.28;1.52;;;;;;;;;;1492978;39;20381;-58
2021/05/06 01:13:13;;;;;;;3.70;1.70;;;;;;;;;;1492945;39;20032;-58
2021/05/06 01:14:14;;;;;;;3.83;1.40;;;;;;;;;;1493124;39;20028;-58
2021/05/06 01:15:16;;;;;;;3.60;1.60;;;;;;;;;;1493114;39;20374;-58
2021/05/06 01:16:16;;;;;;;4.07;1.67;;;;;;;;;;1492915;39;20307;-58
2021/05/06 01:17:19;;;;;;;4.72;1.70;;;;;;;;;;1493066;39;20032;-58
2021/05/06 01:18:20;;;;;;;3.80;1.80;;;;;;;;;;1493138;39;20031;-58
2021/05/06 01:19:21;;;;;;;5.30;1.65;;;;;;;;;;1492820;39;20370;-58
2021/05/06 01:20:22;;;;;;;4.63;1.83;;;;;;;;;;1493019;39;20038;-58
2021/05/06 01:21:24;;;;;;;5.63;2.00;;;;;;;;;;1493087;39;20028;-58
2021/05/06 01:22:25;;;;;;;6.35;1.70;;;;;;;;;;1493108;39;20028;-58
2021/05/06 01:23:29;;;;;;;4.18;1.80;;;;;;;;;;1493074;39;20027;-58
2021/05/06 01:24:30;;;;;;;5.40;1.80;;;;;;;;;;1493063;39;20032;-58
2021/05/06 01:25:31;;;;;;;4.57;2.22;;;;;;;;;;1492951;39;20495;-58
2021/05/06 01:26:35;;;;;;;5.00;1.80;;;;;;;;;;1493061;39;20038;-58
2021/05/06 01:27:41;;;;;;;4.35;2.25;;;;;;;;;;1493116;39;20039;-58
2021/05/06 01:28:45;;;;;;;3.83;2.22;;;;;;;;;;1493132;39;20168;-58
2021/05/06 01:29:50;;;;;;;5.13;2.00;;;;;;;;;;1492925;39;20269;-58
2021/05/06 01:30:56;;;;;;;5.45;1.80;;;;;;;;;;1492853;39;20503;-58
2021/05/06 01:32:08;;;;;;;7.15;1.75;;;;;;;;;;1493148;39;20028;-58
2021/05/06 01:33:14;;;;;;;2.85;1.42;;;;;;;;;;1493144;39;20032;-58
2021/05/06 01:34:18;;;;;;;6.47;2.20;;;;;;;;;;1492903;39;20028;-57
2021/05/06 01:35:25;;;;;;;5.25;1.80;;;;;;;;;;1492860;39;20027;-58
2021/05/06 01:36:30;;;;;;;4.20;1.77;;;;;;;;;;1493192;39;20039;-57
2021/05/06 01:37:35;;;;;;;3.85;1.88;;;;;;;;;;1492896;39;20342;-57
2021/05/06 01:40:14;;;;;;;4.35;1.90;;;;;;;;;;1492850;39;20410;-58
2021/05/06 01:42:43;;;;;;;3.67;1.75;;;;;;;;;;1492887;39;19938;-58
2021/05/06 01:43:53;;;;;;;6.30;1.90;;;;;;;;;;1492823;39;20064;-58
2021/05/06 01:46:33;;;;;;;6.50;1.95;;;;;;;;;;1493156;39;20083;-58
2021/05/06 01:47:35;;;;;;;4.70;1.77;;;;;;;;;;1493168;39;20028;-58
2021/05/06 01:59:17;;;;;;;4.72;1.77;;;;;;;;;;1490800;39;20035;-58
2021/05/06 02:00:20;;;;;;;5.43;1.77;;;;;;;;;;1492941;39;20028;-58
2021/05/06 02:01:21;;;;;;;3.22;1.80;;;;;;;;;;1492823;39;20437;-58
2021/05/06 02:02:23;;;;;;;6.00;1.75;;;;;;;;;;1492802;39;20039;-58
2021/05/06 02:03:24;;;;;;;4.45;1.63;;;;;;;;;;1492977;39;20116;-58
2021/05/06 02:04:25;;;;;;;6.20;1.80;;;;;;;;;;1492964;39;20031;-58
2021/05/06 02:05:26;;;;;;;7.03;2.20;;;;;;;;;;1492954;39;20061;-58
2021/05/06 02:06:27;;;;;;;5.05;1.77;;;;;;;;;;1492938;39;20027;-58
2021/05/06 02:07:28;;;;;;;4.10;1.60;;;;;;;;;;1493062;39;20027;-58
2021/05/06 02:08:30;;;;;;;4.35;2.00;;;;;;;;;;1492788;39;20054;-58
2021/05/06 02:09:31;;;;;;;4.63;2.10;;;;;;;;;;1492730;39;20388;-58
2021/05/06 02:10:33;;;;;;;5.53;2.05;;;;;;;;;;1492964;39;20036;-58
2021/05/06 02:11:34;;;;;;;4.45;1.70;;;;;;;;;;1492925;39;20028;-57
2021/05/06 02:12:35;;;;;;;4.18;1.67;;;;;;;;;;1492776;39;20032;-58
2021/05/06 02:13:36;;;;;;;7.68;2.17;;;;;;;;;;1492262;39;20039;-60
2021/05/06 02:14:37;;;;;;;4.05;1.80;;;;;;;;;;1492426;39;20023;-57
2021/05/06 02:15:41;;;;;;;4.75;2.10;;;;;;;;;;1492744;39;20035;-58
2021/05/06 02:16:42;;;;;;;4.35;1.95;;;;;;;;;;1492861;39;20042;-58
2021/05/06 02:17:45;;;;;;;3.45;1.77;;;;;;;;;;1492972;39;20028;-58
2021/05/06 02:18:46;;;;;;;7.30;2.00;;;;;;;;;;1492654;39;20287;-60
2021/05/06 02:19:48;;;;;;;4.65;2.15;;;;;;;;;;1492186;39;20423;-58
2021/05/06 02:20:50;;;;;;;5.38;2.00;;;;;;;;;;1492262;39;20035;-58
2021/05/06 02:21:51;;;;;;;3.20;1.77;;;;;;;;;;1492817;39;20028;-58
2021/05/06 02:22:53;;;;;;;3.83;2.03;;;;;;;;;;1492755;39;20023;-58
2021/05/06 02:23:55;;;;;;;8.25;1.77;;;;;;;;;;1492704;39;20024;-58
2021/05/06 02:24:56;;;;;;;4.43;2.40;;;;;;;;;;1492748;39;20489;-57
2021/05/06 02:25:57;;;;;;;5.78;1.75;;;;;;;;;;1492796;39;20402;-58
2021/05/06 02:26:58;;;;;;;3.88;1.70;;;;;;;;;;1492733;39;20039;-57
2021/05/06 02:27:59;;;;;;;5.40;2.00;;;;;;;;;;1492716;39;20280;-58
2021/05/06 02:29:00;;;;;;;6.38;1.95;;;;;;;;;;1492654;39;20113;-58
2021/05/06 02:30:02;;;;;;;4.07;1.90;;;;;;;;;;1492630;39;20028;-58
2021/05/06 02:31:04;;;;;;;4.22;1.80;;;;;;;;;;1492848;39;20024;-58
2021/05/06 02:32:05;;;;;;;5.35;1.67;;;;;;;;;;1492196;39;20031;-57
2021/05/06 02:33:08;;;;;;;4.45;1.83;;;;;;;;;;1492228;39;20047;-58
2021/05/06 02:34:09;;;;;;;4.35;1.65;;;;;;;;;;1492727;39;20034;-59
2021/05/06 02:35:11;;;;;;;5.25;1.95;;;;;;;;;;1492846;39;20035;-58
2021/05/06 02:36:12;;;;;;;6.35;1.90;;;;;;;;;;1492867;39;20109;-58
2021/05/06 02:37:13;;;;;;;3.47;1.65;;;;;;;;;;1492710;39;20396;-57
2021/05/06 02:38:14;;;;;;;6.18;2.15;;;;;;;;;;1492668;39;20049;-58
2021/05/06 02:39:16;;;;;;;5.47;2.33;;;;;;;;;;1492807;39;20042;-58
2021/05/06 02:40:17;;;;;;;5.22;1.83;;;;;;;;;;1492748;39;20035;-58
2021/05/06 02:41:18;;;;;;;6.03;1.60;;;;;;;;;;1492640;39;20028;-58
2021/05/06 02:42:20;;;;;;;5.05;1.80;;;;;;;;;;1492715;39;20043;-56
2021/05/06 02:43:21;;;;;;;3.03;1.63;;;;;;;;;;1492713;39;20035;-58
2021/05/06 02:44:22;;;;;;;7.75;1.90;;;;;;;;;;1492794;39;20031;-59
2021/05/06 02:45:24;;;;;;;5.43;1.90;;;;;;;;;;1492697;39;20027;-58
2021/05/06 02:46:25;;;;;;;4.75;1.70;;;;;;;;;;1492679;39;20392;-57
2021/05/06 02:47:28;;;;;;;5.03;1.98;;;;;;;;;;1492822;39;20035;-58
2021/05/06 02:48:28;;;;;;;4.13;1.38;;;;;;;;;;1492652;39;20129;-58
2021/05/06 02:49:30;;;;;;;4.70;1.90;;;;;;;;;;1492618;39;20040;-58
2021/05/06 02:50:47;;;;;;;3.78;1.80;;;;;;;;;;1492856;39;20108;-57
2021/05/06 02:51:51;;;;;;;9.23;1.77;;;;;;;;;;1492582;39;20406;-58
2021/05/06 02:52:58;;;;;;;5.10;2.00;;;;;;;;;;1492639;39;20384;-57
2021/05/06 02:54:00;;;;;;;4.13;1.70;;;;;;;;;;1492659;39;20403;-57
2021/05/06 02:55:07;;;;;;;3.45;1.50;;;;;;;;;;1492644;39;20395;-58
2021/05/06 02:56:12;;;;;;;4.15;1.92;;;;;;;;;;1492633;39;20028;-58
2021/05/06 02:57:20;;;;;;;5.40;1.60;;;;;;;;;;1492676;39;20020;-58
2021/05/06 02:58:36;;;;;;;5.20;1.63;;;;;;;;;;1492771;39;20024;-58
2021/05/06 03:03:42;;;;;;;3.70;1.77;;;;;;;;;;1492791;39;20038;-58
2021/05/06 03:04:44;;;;;;;4.72;1.40;;;;;;;;;;1492888;39;20089;-58
2021/05/06 03:05:50;;;;;;;3.05;1.35;;;;;;;;;;1492824;39;20032;-58
2021/05/06 03:06:55;;;;;;;3.97;1.77;;;;;;;;;;1492631;39;20279;-58
2021/05/06 03:08:09;;;;;;;3.88;1.95;;;;;;;;;;1492856;39;20122;-58
2021/05/06 03:09:22;;;;;;;5.07;1.70;;;;;;;;;;1493408;39;20032;-58
2021/05/06 03:10:35;;;;;;;4.00;1.52;;;;;;;;;;1493448;39;20112;-60
2021/05/06 03:11:42;;;;;;;4.07;2.10;;;;;;;;;;1493207;39;20059;-58
2021/05/06 03:14:27;;;;;;;5.43;1.60;;;;;;;;;;1484157;40;20093;-57
2021/05/06 03:21:26;;;;;;;4.75;2.22;;;;;;;;;;1493201;39;20031;-57
2021/05/06 03:22:44;;;;;;;5.15;1.65;;;;;;;;;;1493302;39;20019;-58
2021/05/06 03:23:45;;;;;;;3.72;1.60;;;;;;;;;;1493223;39;20341;-58
2021/05/06 03:24:49;;;;;;;6.00;1.80;;;;;;;;;;1493282;39;20079;-57
2021/05/06 03:25:51;;;;;;;5.13;1.65;;;;;;;;;;1493383;39;20032;-58
2021/05/06 03:26:53;;;;;;;2.85;1.70;;;;;;;;;;1493290;39;20295;-58
2021/05/06 03:27:56;;;;;;;4.45;1.90;;;;;;;;;;1493346;39;20028;-58
2021/05/06 03:29:03;;;;;;;4.30;1.80;;;;;;;;;;1493618;39;20032;-57
2021/05/06 03:30:15;;;;;;;4.97;2.10;;;;;;;;;;1493230;39;20027;-58
2021/05/06 03:31:31;;;;;;;5.78;2.00;;;;;;;;;;1493429;39;20118;-56
2021/05/06 03:32:41;;;;;;;5.57;1.88;;;;;;;;;;1493189;39;20485;-57
2021/05/06 03:35:15;;;;;;;3.60;1.60;;;;;;;;;;1493389;39;20039;-58
2021/05/06 03:41:43;;;;;;;5.43;1.80;;;;;;;;;;1493338;39;20142;-56
2021/05/06 03:42:47;;;;;;;4.75;1.70;;;;;;;;;;1493270;39;20379;-58
2021/05/06 03:43:58;;;;;;;4.85;1.90;;;;;;;;;;1493124;39;20039;-58
2021/05/06 03:45:12;;;;;;;5.35;1.73;;;;;;;;;;1493475;39;20149;-58
2021/05/06 03:46:44;;;;;;;2.88;1.40;;;;;;;;;;1493409;39;20031;-58
2021/05/06 03:49:44;;;;;;;3.83;1.60;;;;;;;;;;1484054;40;20044;-58
2021/05/06 04:16:21;;;;;;;4.72;2.35;;;;;;;;;;1492907;39;20035;-58
2021/05/06 04:17:33;;;;;;;5.90;2.13;;;;;;;;;;1493092;39;20039;-57
2021/05/06 04:18:37;;;;;;;4.18;1.90;;;;;;;;;;1492907;39;20403;-57
2021/05/06 04:26:36;;;;;;;7.13;2.13;;;;;;;;;;1484084;40;20063;-58
2021/05/06 04:27:45;;;;;;;7.00;2.00;;;;;;;;;;1488887;39;20032;-58
2021/05/06 04:30:24;;;;;;;5.00;2.08;;;;;;;;;;1493261;39;20253;-58
2021/05/06 04:35:37;;;;;;;5.78;2.25;;;;;;;;;;1493207;39;20032;-58
2021/05/06 04:36:48;;;;;;;8.57;2.60;;;;;;;;;;1493238;39;20108;-58
2021/05/06 04:37:51;;;;;;;;;;;;;;;;;;1493572;39;20036;-58
2021/05/06 04:38:51;;;;;;;5.03;2.38;;;;;;;;;;1492963;39;20321;-57
2021/05/06 04:40:02;;;;;;;4.25;2.03;;;;;;;;;;1493059;39;20024;-58
2021/05/06 04:41:22;;;;;;;5.07;2.00;;;;;;;;;;1493011;39;20038;-57
2021/05/06 04:50:14;;;;;;;5.10;2.40;;;;;;;;;;1493089;39;20035;-58
2021/05/06 04:53:37;;;;;;;6.25;2.30;;;;;;;;;;1493020;39;20384;-58
2021/05/06 04:54:40;;;;;;;4.68;2.35;;;;;;;;;;1493062;39;20384;-58
2021/05/06 04:55:45;;;;;;;4.97;2.25;;;;;;;;;;1493195;39;20112;-58
2021/05/06 04:57:02;;;;;;;6.15;2.63;;;;;;;;;;1492968;39;20038;-58
2021/05/06 04:58:20;;;;;;;5.13;2.25;;;;;;;;;;1492999;39;20020;-58
2021/05/06 05:04:49;;;;;;;9.13;2.28;;;;;;;;;;1492778;39;20035;-59
2021/05/06 05:05:50;;;;;;;5.70;2.60;;;;;;;;;;1492914;39;20028;-58
2021/05/06 05:06:55;;;;;;;6.55;2.28;;;;;;;;;;1493184;39;20028;-58
2021/05/06 05:08:02;;;;;;;6.50;2.30;;;;;;;;;;1493046;39;20040;-58
2021/05/06 05:09:17;;;;;;;4.82;2.20;;;;;;;;;;1492894;39;20332;-59
2021/05/06 05:10:26;;;;;;;5.93;2.25;;;;;;;;;;1493226;39;20039;-59
2021/05/06 05:11:38;;;;;;;6.47;2.40;;;;;;;;;;1492891;39;20391;-58
2021/05/06 05:18:23;;;;;;;7.38;2.38;;;;;;;;;;1493270;39;20035;-59
2021/05/06 05:20:47;;;;;;;5.10;2.67;;;;;;;;;;1489142;39;20072;-58
2021/05/06 05:23:27;;;;;;;4.47;2.30;;;;;;;;;;1493219;39;20028;-59
2021/05/06 05:24:32;;;;;;;6.53;2.25;;;;;;;;;;1492955;39;20310;-59
2021/05/06 05:25:34;;;;;;;10.95;3.05;;;;;;;;;;1492948;39;20488;-60
2021/05/06 05:26:35;;;;;;;6.25;2.75;;;;;;;;;;1493067;39;20028;-59
2021/05/06 05:27:37;;;;;;;8.63;2.88;;;;;;;;;;1493102;39;20065;-59
2021/05/06 05:28:38;;;;;;;8.32;2.47;;;;;;;;;;1493047;39;20034;-58
2021/05/06 05:29:39;;;;;;;7.57;2.90;;;;;;;;;;1493093;39;20035;-59
2021/05/06 05:30:40;;;;;;;9.10;2.88;;;;;;;;;;1492263;39;20035;-59
2021/05/06 05:31:41;;;;;;;6.53;2.50;;;;;;;;;;1492822;39;20028;-59
2021/05/06 05:32:43;;;;;;;8.82;2.35;;;;;;;;;;1493004;39;20044;-59
2021/05/06 05:33:48;;;;;;;5.93;2.25;;;;;;;;;;1492848;39;20285;-59
2021/05/06 05:34:55;;;;;;;7.07;2.45;;;;;;;;;;1492873;39;20391;-59
2021/05/06 05:36:06;;;;;;;3.95;2.13;;;;;;;;;;1492922;39;20400;-59
2021/05/06 05:37:14;;;;;;;4.82;2.20;;;;;;;;;;1492880;39;20119;-58
2021/05/06 05:38:21;;;;;;;4.97;2.40;;;;;;;;;;1493045;39;20032;-60
2021/05/06 05:39:29;;;;;;;6.68;2.85;;;;;;;;;;1493012;39;20035;-59
2021/05/06 05:40:35;;;;;;;6.15;2.38;;;;;;;;;;1492913;39;20307;-59
2021/05/06 05:43:03;;;;;;;5.65;2.47;;;;;;;;;;1492851;39;20068;-58
2021/05/06 05:44:28;;;;;;;7.20;3.10;;;;;;;;;;1492845;39;20071;-58
2021/05/06 05:47:11;;;;;;;4.97;2.92;;;;;;;;;;1493025;39;20031;-58
2021/05/06 05:55:00;;;;;;;10.20;3.15;;;;;;;;;;1493100;39;20028;-58
2021/05/06 05:56:01;;;;;;;9.90;3.20;;;;;;;;;;1493021;39;20032;-58
2021/05/06 05:57:06;;;;;;;6.45;2.97;;;;;;;;;;1492852;39;20381;-58
2021/05/06 05:58:07;;;;;;;6.78;3.10;;;;;;;;;;1492901;39;20416;-58
2021/05/06 05:59:09;;;;;;;5.28;2.75;;;;;;;;;;1492932;39;20079;-59
2021/05/06 06:00:10;;;;;;;8.40;3.25;;;;;;;;;;1492858;39;20020;-59
2021/05/06 06:01:11;;;;;;;7.90;3.25;;;;;;;;;;1492938;39;20036;-58
2021/05/06 06:02:12;;;;;;;7.78;3.15;;;;;;;;;;1492937;39;20047;-59
2021/05/06 06:03:14;;;;;;;7.97;3.15;;;;;;;;;;1492843;39;20276;-58
2021/05/06 06:04:15;;;;;;;9.40;3.20;;;;;;;;;;1492979;39;20039;-58
2021/05/06 06:05:17;;;;;;;6.40;2.90;;;;;;;;;;1492904;39;20304;-58
2021/05/06 06:06:18;;;;;;;7.40;3.03;;;;;;;;;;1493030;39;20036;-58
2021/05/06 06:07:19;;;;;;;6.93;3.10;;;;;;;;;;1492858;39;20308;-58
2021/05/06 06:08:24;;;;;;;6.68;2.90;;;;;;;;;;1492984;39;20067;-58
2021/05/06 06:09:25;;;;;;;6.78;3.10;;;;;;;;;;1492746;39;20348;-58
2021/05/06 06:10:26;;;;;;;8.48;3.22;;;;;;;;;;1492743;39;20039;-58
2021/05/06 06:11:27;;;;;;;10.13;3.08;;;;;;;;;;1492719;39;20035;-58
2021/05/06 06:12:28;;;;;;;6.93;2.80;;;;;;;;;;1492749;39;20039;-58
2021/05/06 06:13:30;;;;;;;4.85;2.55;;;;;;;;;;1492880;39;20036;-58
2021/05/06 06:14:37;;;;;;;7.20;2.60;;;;;;;;;;1492927;39;20024;-59
2021/05/06 06:15:50;;;;;;;6.13;2.90;;;;;;;;;;1492985;39;20031;-58
2021/05/06 06:16:51;;;;;;;8.20;2.33;;;;;;;;;;1493071;39;20068;-58
2021/05/06 06:17:53;;;;;;;3.58;2.17;;;;;;;;;;1492939;39;20028;-58
2021/05/06 06:18:56;;;;;;;11.48;2.90;;;;;;;;;;1492693;39;20064;-58
2021/05/06 06:19:59;;;;;;;6.85;2.40;;;;;;;;;;1492826;39;20054;-58
2021/05/06 06:21:04;;;;;;;6.88;2.63;;;;;;;;;;1492716;39;20112;-58
2021/05/06 06:22:07;;;;;;;9.15;2.60;;;;;;;;;;1492749;39;20024;-58
2021/05/06 06:23:08;;;;;;;4.95;2.33;;;;;;;;;;1492737;39;20117;-58
2021/05/06 06:24:10;;;;;;;6.80;2.60;;;;;;;;;;1492967;39;20137;-58
2021/05/06 06:25:11;;;;;;;8.05;2.30;;;;;;;;;;1492877;39;20034;-58
2021/05/06 06:26:13;;;;;;;6.15;2.53;;;;;;;;;;1492739;39;20066;-58
2021/05/06 06:27:15;;;;;;;8.68;2.42;;;;;;;;;;1492815;39;20036;-58
2021/05/06 06:28:17;;;;;;;4.65;2.20;;;;;;;;;;1492698;39;20076;-58
2021/05/06 06:29:19;;;;;;;8.98;2.30;;;;;;;;;;1492653;39;20028;-58
2021/05/06 06:30:21;;;;;;;5.65;2.50;;;;;;;;;;1492790;39;20295;-58
2021/05/06 06:31:25;;;;;;;6.95;2.17;;;;;;;;;;1492643;39;20369;-58
2021/05/06 06:32:26;;;;;;;5.78;2.10;;;;;;;;;;1492717;39;20036;-58
2021/05/06 06:33:27;;;;;;;10.73;2.85;;;;;;;;;;1492863;39;20032;-58
2021/05/06 06:34:29;;;;;;;5.03;2.10;;;;;;;;;;1492642;39;20019;-58
2021/05/06 06:35:30;;;;;;;7.15;2.22;;;;;;;;;;1492688;39;20043;-58
2021/05/06 06:36:31;;;;;;;6.22;2.58;;;;;;;;;;1492655;39;20036;-58
2021/05/06 06:37:32;;;;;;;5.68;2.20;;;;;;;;;;1492825;39;20028;-58
2021/05/06 06:38:33;;;;;;;8.82;2.40;;;;;;;;;;1492666;39;20046;-58
2021/05/06 06:39:39;;;;;;;9.35;2.60;;;;;;;;;;1492583;39;20134;-58
2021/05/06 06:40:39;;;;;;;7.57;2.42;;;;;;;;;;1492923;39;20035;-58
2021/05/06 06:41:41;;;;;;;6.10;2.20;;;;;;;;;;1492658;39;20031;-57
2021/05/06 06:42:42;;;;;;;6.88;2.10;;;;;;;;;;1493448;39;20028;-58
2021/05/06 06:43:45;;;;;;;5.95;2.25;;;;;;;;;;1493608;39;20024;-58
2021/05/06 06:44:46;;;;;;;12.00;2.92;;;;;;;;;;1493493;39;20035;-58
2021/05/06 06:45:48;;;;;;;5.25;2.00;;;;;;;;;;1493508;39;20019;-58
2021/05/06 06:47:00;;;;;;;5.95;2.38;;;;;;;;;;1493473;39;20051;-58
2021/05/06 06:48:01;;;;;;;4.53;2.10;;;;;;;;;;1493331;39;20303;-58
2021/05/06 06:49:03;;;;;;;5.78;1.77;;;;;;;;;;1493265;39;20034;-58
2021/05/06 06:50:06;;;;;;;8.00;2.28;;;;;;;;;;1493268;39;20117;-58
2021/05/06 06:51:07;;;;;;;8.55;2.30;;;;;;;;;;1493310;39;20303;-58
2021/05/06 06:52:10;;;;;;;6.30;2.05;;;;;;;;;;1493239;39;20023;-59
2021/05/06 06:53:13;;;;;;;8.93;2.40;;;;;;;;;;1493471;39;20032;-58
2021/05/06 06:54:14;;;;;;;9.85;2.13;;;;;;;;;;1493287;39;20272;-58
2021/05/06 06:55:15;;;;;;;4.13;1.88;;;;;;;;;;1493437;39;20039;-58
2021/05/06 06:56:16;;;;;;;6.53;2.17;;;;;;;;;;1493433;39;20086;-58
2021/05/06 06:57:17;;;;;;;11.05;2.30;;;;;;;;;;1493454;39;20106;-58
2021/05/06 06:58:18;;;;;;;7.53;2.03;;;;;;;;;;1493229;39;20024;-58
2021/05/06 06:59:19;;;;;;;6.00;1.95;;;;;;;;;;1493438;39;20042;-58
2021/05/06 07:00:21;;;;;;;8.18;2.30;;;;;;;;;;1493254;39;20406;-58
2021/05/06 07:01:23;;;;;;;6.68;1.90;;;;;;;;;;1493461;39;20027;-58
2021/05/06 07:02:23;;;;;;;5.00;2.10;;;;;;;;;;1493429;39;20031;-58
2021/05/06 07:03:25;;;;;;;7.90;2.83;;;;;;;;;;1493227;39;20028;-58
2021/05/06 07:04:28;;;;;;;6.47;2.20;;;;;;;;;;1493439;39;20028;-58
2021/05/06 07:05:30;;;;;;;6.55;2.08;;;;;;;;;;1493393;39;20097;-58
2021/05/06 07:06:31;;;;;;;7.95;2.50;;;;;;;;;;1493455;39;20035;-58
2021/05/06 07:07:32;;;;;;;9.00;2.00;;;;;;;;;;1493303;39;20302;-58
2021/05/06 07:08:34;;;;;;;10.73;2.20;;;;;;;;;;1493406;39;20043;-58
2021/05/06 07:09:35;;;;;;;6.28;2.22;;;;;;;;;;1493177;39;20040;-58
2021/05/06 07:10:36;;;;;;;6.35;1.90;;;;;;;;;;1493294;39;20028;-58
2021/05/06 07:11:38;;;;;;;6.50;2.13;;;;;;;;;;1493333;39;20029;-58
2021/05/06 07:12:38;;;;;;;6.03;2.10;;;;;;;;;;1493215;39;20035;-58
2021/05/06 07:13:40;;;;;;;7.72;1.85;;;;;;;;;;1493270;39;20035;-58
2021/05/06 07:14:41;;;;;;;7.28;2.50;;;;;;;;;;1493389;39;20027;-58
2021/05/06 07:15:46;;;;;;;6.00;2.30;;;;;;;;;;1493223;39;20027;-58
2021/05/06 07:16:48;;;;;;;7.32;2.28;;;;;;;;;;1493447;39;20032;-58
2021/05/06 07:17:49;;;;;;;6.38;2.20;;;;;;;;;;1493272;39;20028;-58
2021/05/06 07:18:50;;;;;;;6.53;2.53;;;;;;;;;;1493323;39;20020;-59
2021/05/06 07:19:51;;;;;;;8.32;2.30;;;;;;;;;;1493241;39;20383;-58
2021/05/06 07:20:54;;;;;;;6.45;2.17;;;;;;;;;;1493409;39;20031;-58
2021/05/06 07:21:55;;;;;;;7.63;2.42;;;;;;;;;;1493258;39;20054;-59
2021/05/06 07:22:56;;;;;;;6.15;2.10;;;;;;;;;;1493360;39;20019;-58
2021/05/06 07:23:57;;;;;;;7.00;2.22;;;;;;;;;;1493190;39;20035;-58
2021/05/06 07:24:58;;;;;;;5.55;1.98;;;;;;;;;;1493201;39;20032;-58
2021/05/06 07:26:00;;;;;;;6.40;2.00;;;;;;;;;;1493370;39;20028;-58
2021/05/06 07:27:01;;;;;;;6.13;2.40;;;;;;;;;;1493193;39;20036;-58
2021/05/06 07:28:14;;;;;;;8.43;2.67;;;;;;;;;;1493171;39;20422;-58
2021/05/06 07:29:18;;;;;;;5.38;1.88;;;;;;;;;;1493148;39;20341;-58
2021/05/06 07:30:20;;;;;;;6.10;2.17;;;;;;;;;;1493276;39;20027;-58
2021/05/06 07:31:21;;;;;;;8.13;2.15;;;;;;;;;;1493174;39;20396;-58
2021/05/06 07:32:23;;;;;;;8.45;2.20;;;;;;;;;;1493151;39;20032;-59
2021/05/06 07:33:24;;;;;;;7.28;2.20;;;;;;;;;;1493320;39;20028;-58
2021/05/06 07:34:25;;;;;;;7.03;2.58;;;;;;;;;;1493316;39;20097;-59
2021/05/06 07:35:26;;;;;;;5.50;2.28;;;;;;;;;;1493247;39;20077;-57
2021/05/06 07:36:28;;;;;;;7.20;2.03;;;;;;;;;;1493319;39;20028;-59
2021/05/06 07:37:29;;;;;;;4.25;2.40;;;;;;;;;;1492674;39;20418;-59
2021/05/06 07:38:31;;;;;;;6.93;2.33;;;;;;;;;;1492721;39;20031;-59
2021/05/06 07:39:32;;;;;;;5.15;2.05;;;;;;;;;;1492612;39;20387;-59
2021/05/06 07:40:34;;;;;;;5.90;2.33;;;;;;;;;;1492654;39;20075;-58
2021/05/06 07:41:35;;;;;;;5.55;1.95;;;;;;;;;;1493200;39;20093;-59
2021/05/06 07:42:36;;;;;;;6.90;2.50;;;;;;;;;;1493185;39;20081;-59
2021/05/06 07:43:37;;;;;;;7.82;2.28;;;;;;;;;;1493161;39;20024;-59
2021/05/06 07:44:38;;;;;;;8.20;2.65;;;;;;;;;;1493211;39;20064;-58
2021/05/06 07:45:39;;;;;;;6.20;2.60;;;;;;;;;;1493176;39;20406;-58
2021/05/06 07:46:40;;;;;;;9.45;2.55;;;;;;;;;;1493190;39;20392;-59
2021/05/06 07:47:41;;;;;;;5.50;2.00;;;;;;;;;;1493327;39;20035;-58
2021/05/06 07:48:43;;;;;;;4.88;2.05;;;;;;;;;;1493195;39;20024;-58
2021/05/06 07:49:46;;;;;;;8.60;2.05;;;;;;;;;;1493157;39;20303;-59
2021/05/06 07:50:48;;;;;;;8.65;2.25;;;;;;;;;;1493429;39;20089;-58
2021/05/06 07:51:49;;;;;;;8.45;2.40;;;;;;;;;;1493072;39;20034;-59
2021/05/06 07:52:54;;;;;;;7.32;2.00;;;;;;;;;;1493316;39;20031;-59
2021/05/06 07:53:56;;;;;;;7.40;2.42;;;;;;;;;;1492672;39;20031;-59
2021/05/06 07:54:58;;;;;;;6.50;2.50;;;;;;;;;;1493148;39;20396;-58
2021/05/06 07:55:59;;;;;;;8.18;2.67;;;;;;;;;;1493273;39;20028;-58
2021/05/06 07:57:00;;;;;;;6.22;2.30;;;;;;;;;;1493199;39;20295;-59
2021/05/06 07:58:03;;;;;;;8.68;2.30;;;;;;;;;;1493157;39;20028;-59
2021/05/06 07:59:05;;;;;;;4.40;2.13;;;;;;;;;;1493111;39;20034;-58
2021/05/06 08:00:07;;;;;;;8.38;2.33;;;;;;;;;;1493135;39;20041;-59
2021/05/06 08:01:09;;;;;;;6.28;2.38;;;;;;;;;;1493324;39;20028;-58
2021/05/06 08:02:11;;;;;;;7.40;2.90;;;;;;;;;;1493398;39;20032;-59
2021/05/06 08:03:12;;;;;;;5.15;2.28;;;;;;;;;;1493078;39;20395;-59
2021/05/06 08:04:14;;;;;;;6.60;2.60;;;;;;;;;;1493158;39;20032;-59
2021/05/06 08:05:15;;;;;;;8.55;2.35;;;;;;;;;;1493277;39;20043;-58
2021/05/06 08:06:18;;;;;;;5.15;2.03;;;;;;;;;;1493281;39;20027;-58
2021/05/06 08:07:20;;;;;;;10.13;2.20;;;;;;;;;;1493131;39;20306;-59
2021/05/06 08:08:21;;;;;;;5.28;2.10;;;;;;;;;;1493250;39;20048;-59
2021/05/06 08:09:22;;;;;;;7.55;1.98;;;;;;;;;;1493226;39;20302;-59
2021/05/06 08:10:26;;;;;;;5.97;2.08;;;;;;;;;;1493100;39;20407;-58
2021/05/06 08:11:28;;;;;;;6.90;2.25;;;;;;;;;;1493149;39;20295;-58
2021/05/06 08:12:28;;;;;;;8.02;2.15;;;;;;;;;;1493278;39;20079;-58
2021/05/06 08:13:30;;;;;;;4.75;2.33;;;;;;;;;;1493065;39;20277;-59
2021/05/06 08:14:31;;;;;;;8.05;2.45;;;;;;;;;;1493258;39;20028;-59
2021/05/06 08:15:32;;;;;;;6.65;2.53;;;;;;;;;;1493048;39;20387;-58
2021/05/06 08:16:33;;;;;;;6.25;1.98;;;;;;;;;;1493222;39;20035;-58
2021/05/06 08:17:34;;;;;;;7.55;2.85;;;;;;;;;;1493040;39;20024;-59
2021/05/06 08:18:35;;;;;;;7.78;2.00;;;;;;;;;;1493137;39;20109;-57
2021/05/06 08:19:37;;;;;;;5.47;2.22;;;;;;;;;;1493013;39;20120;-58
2021/05/06 08:20:38;;;;;;;5.75;2.22;;;;;;;;;;1493150;39;20027;-58
2021/05/06 08:21:39;;;;;;;4.82;2.15;;;;;;;;;;1493133;39;20408;-59
2021/05/06 08:22:41;;;;;;;4.45;2.00;;;;;;;;;;1493020;39;20373;-59
2021/05/06 08:23:43;;;;;;;5.95;2.10;;;;;;;;;;1493255;39;20044;-58
2021/05/06 08:24:44;;;;;;;6.50;2.08;;;;;;;;;;1493027;39;20032;-58
2021/05/06 08:25:46;;;;;;;6.43;2.28;;;;;;;;;;1493041;39;20073;-58
2021/05/06 08:26:47;;;;;;;7.45;2.17;;;;;;;;;;1493019;39;20024;-58
2021/05/06 08:27:48;;;;;;;9.25;2.30;;;;;;;;;;1493226;39;20023;-59
2021/05/06 08:28:49;;;;;;;5.93;2.10;;;;;;;;;;1492459;39;20391;-60
2021/05/06 08:29:51;;;;;;;7.75;2.30;;;;;;;;;;1492513;39;20300;-58
2021/05/06 08:30:52;;;;;;;5.10;2.42;;;;;;;;;;1493004;39;20028;-58
2021/05/06 08:31:54;;;;;;;5.90;2.20;;;;;;;;;;1493138;39;20028;-59
2021/05/06 08:32:55;;;;;;;7.15;2.00;;;;;;;;;;1493187;39;20034;-58
2021/05/06 08:33:57;;;;;;;4.95;1.90;;;;;;;;;;1493176;39;20036;-59
2021/05/06 08:34:58;;;;;;;4.80;2.20;;;;;;;;;;1493176;39;20031;-59
2021/05/06 08:35:59;;;;;;;7.90;2.58;;;;;;;;;;1492997;39;20145;-57
2021/05/06 08:37:00;;;;;;;4.53;1.95;;;;;;;;;;1492972;39;20362;-59
2021/05/06 08:38:02;;;;;;;6.28;2.42;;;;;;;;;;1493256;39;20101;-59
2021/05/06 08:39:05;;;;;;;10.63;2.47;;;;;;;;;;1493074;39;20384;-59
2021/05/06 08:40:07;;;;;;;5.80;1.85;;;;;;;;;;1493172;39;20030;-59
2021/05/06 08:41:08;;;;;;;9.15;2.55;;;;;;;;;;1493176;39;20039;-57
2021/05/06 08:42:11;;;;;;;5.97;2.20;;;;;;;;;;1493040;39;20063;-59
2021/05/06 08:43:12;;;;;;;11.40;2.30;;;;;;;;;;1493199;39;20028;-59
2021/05/06 08:44:17;;;;;;;7.45;2.47;;;;;;;;;;1493219;39;20096;-59
2021/05/06 08:45:18;;;;;;;5.97;2.45;;;;;;;;;;1493338;39;20031;-58
2021/05/06 08:46:20;;;;;;;7.13;2.17;;;;;;;;;;1493163;39;20075;-59
2021/05/06 08:47:22;;;;;;;8.02;3.13;;;;;;;;;;1493188;39;20039;-59
2021/05/06 08:48:23;;;;;;;5.63;2.33;;;;;;;;;;1493013;39;20113;-58
2021/05/06 08:49:24;;;;;;;7.55;2.40;;;;;;;;;;1492925;39;20035;-59
2021/05/06 08:50:26;;;;;;;9.85;2.55;;;;;;;;;;1493195;39;20031;-58
2021/05/06 08:51:28;;;;;;;7.90;2.15;;;;;;;;;;1492895;39;20040;-58